sensor_id;sensor_type;location;lat;lon;timestamp;pressure;altitude;pressure_sealevel;temperature;humidity
11001;BME280;5553;48.506;8.870;2023-03-21T00:02:28;96709.91;;;5.63;100.00
11001;BME280;5553;48.506;8.870;2023-03-21T00:04:57;96709.25;;;5.61;100.00
11001;BME280;5553;48.506;8.870;2023-03-21T00:07:26;96703.06;;;5.70;100.00
11001;BME280;5553;48.506;8.870;2023-03-21T00:09:57;96702.06;;;5.63;100.00
11001;BME280;5553;48.506;8.870;2023-03-21T00:12:25;96696.56;;;5.75;100.00
11001;BME280;5553;48.506;8.870;2023-03-21T00:14:56;96695.28;;;5.79;100.00
11001;BME280;5553;48.506;8.870;2023-03-21T00:17:29;96683.47;;;5.75;100.00
11001;BME280;5553;48.506;8.870;2023-03-21T00:19:57;96692.34;;;5.82;100.00
11001;BME280;5553;48.506;8.870;2023-03-21T00:22:25;96685.50;;;5.89;100.00
11001;BME280;5553;48.506;8.870;2023-03-21T00:24:57;96689.41;;;5.85;100.00
11001;BME280;5553;48.506;8.870;2023-03-21T00:27:25;96685.63;;;5.87;100.00
11001;BME280;5553;48.506;8.870;2023-03-21T00:29:53;96679.31;;;5.98;100.00
11001;BME280;5553;48.506;8.870;2023-03-21T00:32:21;96676.50;;;5.91;100.00
11001;BME280;5553;48.506;8.870;2023-03-21T00:34:50;96674.03;;;5.90;100.00
11001;BME280;5553;48.506;8.870;2023-03-21T00:37:18;96671.13;;;5.93;100.00
11001;BME280;5553;48.506;8.870;2023-03-21T00:39:47;96680.63;;;5.94;100.00
11001;BME280;5553;48.506;8.870;2023-03-21T00:42:18;96675.34;;;5.86;100.00
11001;BME280;5553;48.506;8.870;2023-03-21T00:44:47;96674.97;;;5.81;100.00
11001;BME280;5553;48.506;8.870;2023-03-21T00:47:15;96674.72;;;5.92;100.00
11001;BME280;5553;48.506;8.870;2023-03-21T00:49:43;96674.72;;;5.92;100.00
11001;BME280;5553;48.506;8.870;2023-03-21T00:52:11;96664.59;;;5.97;100.00
11001;BME280;5553;48.506;8.870;2023-03-21T00:54:40;96661.97;;;5.97;100.00
11001;BME280;5553;48.506;8.870;2023-03-21T00:57:08;96659.00;;;5.92;100.00
11001;BME280;5553;48.506;8.870;2023-03-21T00:59:39;96662.06;;;5.79;100.00
11001;BME280;5553;48.506;8.870;2023-03-21T01:02:07;96668.47;;;5.85;100.00
11001;BME280;5553;48.506;8.870;2023-03-21T01:04:39;96658.63;;;5.87;100.00
11001;BME280;5553;48.506;8.870;2023-03-21T01:07:07;96654.72;;;5.91;100.00
11001;BME280;5553;48.506;8.870;2023-03-21T01:09:35;96657.94;;;5.77;100.00
11001;BME280;5553;48.506;8.870;2023-03-21T01:12:03;96656.59;;;5.64;100.00
11001;BME280;5553;48.506;8.870;2023-03-21T01:14:32;96657.41;;;5.65;100.00
11001;BME280;5553;48.506;8.870;2023-03-21T01:17:03;96664.91;;;5.60;100.00
11001;BME280;5553;48.506;8.870;2023-03-21T01:19:32;96669.84;;;5.63;100.00
11001;BME280;5553;48.506;8.870;2023-03-21T01:22:01;96667.56;;;5.68;100.00
11001;BME280;5553;48.506;8.870;2023-03-21T01:24:29;96677.19;;;5.67;100.00
11001;BME280;5553;48.506;8.870;2023-03-21T01:26:57;96664.16;;;5.76;100.00
11001;BME280;5553;48.506;8.870;2023-03-21T01:29:25;96671.22;;;5.83;100.00
11001;BME280;5553;48.506;8.870;2023-03-21T01:31:54;96663.03;;;5.78;100.00
11001;BME280;5553;48.506;8.870;2023-03-21T01:34:24;96663.19;;;5.77;100.00
11001;BME280;5553;48.506;8.870;2023-03-21T01:36:54;96662.53;;;5.75;100.00
11001;BME280;5553;48.506;8.870;2023-03-21T01:39:22;96666.72;;;5.67;100.00
11001;BME280;5553;48.506;8.870;2023-03-21T01:41:50;96665.28;;;5.73;100.00
11001;BME280;5553;48.506;8.870;2023-03-21T01:44:19;96666.47;;;5.79;100.00
11001;BME280;5553;48.506;8.870;2023-03-21T01:46:48;96648.47;;;5.76;100.00
11001;BME280;5553;48.506;8.870;2023-03-21T01:49:19;96656.97;;;5.78;100.00
11001;BME280;5553;48.506;8.870;2023-03-21T01:51:57;96649.09;;;5.78;100.00
11001;BME280;5553;48.506;8.870;2023-03-21T01:54:31;96645.78;;;5.67;100.00
11001;BME280;5553;48.506;8.870;2023-03-21T01:57:04;96656.59;;;5.64;100.00
11001;BME280;5553;48.506;8.870;2023-03-21T01:59:37;96644.94;;;5.59;100.00
11001;BME280;5553;48.506;8.870;2023-03-21T02:02:11;96644.63;;;5.62;100.00
11001;BME280;5553;48.506;8.870;2023-03-21T02:04:42;96643.00;;;5.61;100.00
11001;BME280;5553;48.506;8.870;2023-03-21T02:07:26;96642.84;;;5.62;100.00
11001;BME280;5553;48.506;8.870;2023-03-21T02:09:57;96647.53;;;5.51;100.00
11001;BME280;5553;48.506;8.870;2023-03-21T02:12:26;96643.47;;;5.56;100.00
11001;BME280;5553;48.506;8.870;2023-03-21T02:14:54;96642.13;;;5.52;100.00
11001;BME280;5553;48.506;8.870;2023-03-21T02:17:28;96650.34;;;5.57;100.00
11001;BME280;5553;48.506;8.870;2023-03-21T02:20:35;96639.31;;;5.45;100.00
11001;BME280;5553;48.506;8.870;2023-03-21T02:23:32;96632.16;;;5.47;100.00
11001;BME280;5553;48.506;8.870;2023-03-21T02:26:20;96635.59;;;5.48;100.00
11001;BME280;5553;48.506;8.870;2023-03-21T02:29:00;96637.22;;;5.49;100.00
11001;BME280;5553;48.506;8.870;2023-03-21T02:31:37;96637.84;;;5.43;100.00
11001;BME280;5553;48.506;8.870;2023-03-21T02:37:20;96636.50;;;5.39;100.00
11001;BME280;5553;48.506;8.870;2023-03-21T02:40:02;96629.34;;;5.41;100.00
11001;BME280;5553;48.506;8.870;2023-03-21T02:42:42;96630.66;;;5.45;100.00
11001;BME280;5553;48.506;8.870;2023-03-21T02:45:17;96633.88;;;5.39;100.00
11001;BME280;5553;48.506;8.870;2023-03-21T02:47:48;96638.13;;;5.40;100.00
11001;BME280;5553;48.506;8.870;2023-03-21T02:50:21;96628.63;;;5.31;100.00
11001;BME280;5553;48.506;8.870;2023-03-21T02:52:55;96626.66;;;5.33;100.00
11001;BME280;5553;48.506;8.870;2023-03-21T02:55:25;96629.84;;;5.18;100.00
11001;BME280;5553;48.506;8.870;2023-03-21T02:57:56;96624.94;;;5.15;100.00
11001;BME280;5553;48.506;8.870;2023-03-21T03:00:27;96628.84;;;5.11;100.00
11001;BME280;5553;48.506;8.870;2023-03-21T03:02:57;96625.75;;;4.90;100.00
11001;BME280;5553;48.506;8.870;2023-03-21T03:05:27;96632.66;;;4.99;100.00
11001;BME280;5553;48.506;8.870;2023-03-21T03:08:06;96629.75;;;5.02;100.00
11001;BME280;5553;48.506;8.870;2023-03-21T03:10:46;96631.38;;;4.77;100.00
11001;BME280;5553;48.506;8.870;2023-03-21T03:13:31;96633.88;;;4.79;100.00
11001;BME280;5553;48.506;8.870;2023-03-21T03:16:09;96643.53;;;4.42;100.00
11001;BME280;5553;48.506;8.870;2023-03-21T03:18:47;96644.19;;;4.26;100.00
11001;BME280;5553;48.506;8.870;2023-03-21T03:21:20;96645.22;;;4.34;100.00
11001;BME280;5553;48.506;8.870;2023-03-21T03:23:54;96631.06;;;4.18;100.00
11001;BME280;5553;48.506;8.870;2023-03-21T03:26:27;96637.59;;;4.22;100.00
11001;BME280;5553;48.506;8.870;2023-03-21T03:29:00;96636.41;;;4.17;100.00
11001;BME280;5553;48.506;8.870;2023-03-21T03:31:33;96635.63;;;4.34;100.00
11001;BME280;5553;48.506;8.870;2023-03-21T03:34:05;96631.13;;;4.26;100.00
11001;BME280;5553;48.506;8.870;2023-03-21T03:36:39;96633.13;;;4.15;100.00
11001;BME280;5553;48.506;8.870;2023-03-21T03:39:12;96632.63;;;4.11;100.00
11001;BME280;5553;48.506;8.870;2023-03-21T03:41:44;96634.13;;;4.14;100.00
11001;BME280;5553;48.506;8.870;2023-03-21T03:44:13;96632.44;;;4.13;100.00
11001;BME280;5553;48.506;8.870;2023-03-21T03:46:45;96637.59;;;4.04;100.00
11001;BME280;5553;48.506;8.870;2023-03-21T03:49:17;96633.56;;;4.10;100.00
11001;BME280;5553;48.506;8.870;2023-03-21T03:51:50;96631.94;;;4.09;100.00
11001;BME280;5553;48.506;8.870;2023-03-21T03:54:26;96628.91;;;4.14;100.00
11001;BME280;5553;48.506;8.870;2023-03-21T03:56:57;96635.44;;;3.72;100.00
11001;BME280;5553;48.506;8.870;2023-03-21T03:59:26;96640.81;;;3.71;100.00
11001;BME280;5553;48.506;8.870;2023-03-21T04:01:54;96633.59;;;3.55;100.00
11001;BME280;5553;48.506;8.870;2023-03-21T04:04:22;96635.34;;;3.64;100.00
11001;BME280;5553;48.506;8.870;2023-03-21T04:06:53;96639.75;;;3.64;100.00
11001;BME280;5553;48.506;8.870;2023-03-21T04:09:24;96631.81;;;3.55;100.00
11001;BME280;5553;48.506;8.870;2023-03-21T04:11:53;96637.59;;;3.59;100.00
11001;BME280;5553;48.506;8.870;2023-03-21T04:14:21;96638.38;;;3.69;100.00
11001;BME280;5553;48.506;8.870;2023-03-21T04:16:50;96628.28;;;3.74;100.00
11001;BME280;5553;48.506;8.870;2023-03-21T04:19:19;96626.66;;;3.73;100.00
11001;BME280;5553;48.506;8.870;2023-03-21T04:21:47;96639.03;;;3.71;100.00
11001;BME280;5553;48.506;8.870;2023-03-21T04:24:15;96627.63;;;3.72;100.00
11001;BME280;5553;48.506;8.870;2023-03-21T04:26:46;96625.84;;;3.73;100.00
11001;BME280;5553;48.506;8.870;2023-03-21T04:29:18;96627.63;;;3.72;100.00
11001;BME280;5553;48.506;8.870;2023-03-21T04:31:47;96631.13;;;3.63;100.00
11001;BME280;5553;48.506;8.870;2023-03-21T04:34:15;96628.88;;;3.68;100.00
11001;BME280;5553;48.506;8.870;2023-03-21T04:36:48;96632.25;;;3.51;100.00
11001;BME280;5553;48.506;8.870;2023-03-21T04:39:19;96639.47;;;3.39;100.00
11001;BME280;5553;48.506;8.870;2023-03-21T04:41:51;96630.88;;;3.19;100.00
11001;BME280;5553;48.506;8.870;2023-03-21T04:44:20;96641.28;;;3.29;100.00
11001;BME280;5553;48.506;8.870;2023-03-21T04:46:48;96629.81;;;3.12;100.00
11001;BME280;5553;48.506;8.870;2023-03-21T04:49:16;96629.13;;;3.00;100.00
11001;BME280;5553;48.506;8.870;2023-03-21T04:51:45;96633.34;;;3.11;100.00
11001;BME280;5553;48.506;8.870;2023-03-21T04:54:14;96638.41;;;3.22;100.00
11001;BME280;5553;48.506;8.870;2023-03-21T06:02:01;96671.47;;;2.36;100.00
11001;BME280;5553;48.506;8.870;2023-03-21T06:04:30;96669.81;;;2.45;100.00
11001;BME280;5553;48.506;8.870;2023-03-21T06:06:58;96669.25;;;2.51;100.00
11001;BME280;5553;48.506;8.870;2023-03-21T06:09:26;96665.81;;;2.70;100.00
11001;BME280;5553;48.506;8.870;2023-03-21T06:11:56;96665.16;;;2.68;100.00
11001;BME280;5553;48.506;8.870;2023-03-21T06:14:24;96660.22;;;2.65;100.00
11001;BME280;5553;48.506;8.870;2023-03-21T06:16:52;96668.41;;;2.89;100.00
11001;BME280;5553;48.506;8.870;2023-03-21T06:19:23;96663.00;;;3.10;100.00
11001;BME280;5553;48.506;8.870;2023-03-21T06:21:51;96660.41;;;3.10;100.00
11001;BME280;5553;48.506;8.870;2023-03-21T06:24:20;96658.22;;;3.15;100.00
11001;BME280;5553;48.506;8.870;2023-03-21T06:26:48;96657.34;;;3.24;100.00
11001;BME280;5553;48.506;8.870;2023-03-21T06:29:16;96659.38;;;3.30;100.00
11001;BME280;5553;48.506;8.870;2023-03-21T06:31:45;96658.53;;;3.40;100.00
11001;BME280;5553;48.506;8.870;2023-03-21T06:34:13;96646.81;;;3.53;100.00
11001;BME280;5553;48.506;8.870;2023-03-21T06:36:44;96647.84;;;3.70;100.00
11001;BME280;5553;48.506;8.870;2023-03-21T06:39:12;96641.19;;;3.76;100.00
11001;BME280;5553;48.506;8.870;2023-03-21T06:41:40;96645.25;;;3.88;100.00
11001;BME280;5553;48.506;8.870;2023-03-21T06:44:09;96643.84;;;3.94;100.00
11001;BME280;5553;48.506;8.870;2023-03-21T06:46:37;96639.81;;;3.99;100.00
11001;BME280;5553;48.506;8.870;2023-03-21T06:49:05;96642.25;;;4.28;100.00
11001;BME280;5553;48.506;8.870;2023-03-21T06:51:33;96631.28;;;4.43;100.00
11001;BME280;5553;48.506;8.870;2023-03-21T06:54:04;96625.81;;;4.54;100.00
11001;BME280;5553;48.506;8.870;2023-03-21T06:56:33;96617.66;;;5.01;100.00
11001;BME280;5553;48.506;8.870;2023-03-21T06:59:01;96608.88;;;4.84;100.00
11001;BME280;5553;48.506;8.870;2023-03-21T07:01:29;96608.41;;;4.89;100.00
11001;BME280;5553;48.506;8.870;2023-03-21T07:03:57;96603.59;;;5.02;100.00
11001;BME280;5553;48.506;8.870;2023-03-21T07:06:26;96603.75;;;5.27;100.00
11001;BME280;5553;48.506;8.870;2023-03-21T07:08:55;96599.09;;;5.46;100.00
11001;BME280;5553;48.506;8.870;2023-03-21T07:11:26;96606.88;;;5.73;100.00
11001;BME280;5553;48.506;8.870;2023-03-21T07:13:54;96602.31;;;5.75;100.00
11001;BME280;5553;48.506;8.870;2023-03-21T07:16:23;96595.47;;;5.90;100.00
11001;BME280;5553;48.506;8.870;2023-03-21T07:18:51;96585.03;;;5.98;100.00
11001;BME280;5553;48.506;8.870;2023-03-21T07:21:20;96588.03;;;6.28;100.00
11001;BME280;5553;48.506;8.870;2023-03-21T07:23:48;96585.13;;;6.47;100.00
11001;BME280;5553;48.506;8.870;2023-03-21T07:26:17;96582.16;;;6.75;100.00
11001;BME280;5553;48.506;8.870;2023-03-21T07:28:49;96575.22;;;6.90;100.00
11001;BME280;5553;48.506;8.870;2023-03-21T07:31:19;96566.88;;;7.81;100.00
11001;BME280;5553;48.506;8.870;2023-03-21T07:33:50;96572.28;;;8.95;100.00
11001;BME280;5553;48.506;8.870;2023-03-21T07:36:18;96552.72;;;8.37;100.00
11001;BME280;5553;48.506;8.870;2023-03-21T07:38:47;96543.34;;;8.95;100.00
11001;BME280;5553;48.506;8.870;2023-03-21T07:41:15;96540.44;;;9.49;100.00
11001;BME280;5553;48.506;8.870;2023-03-21T07:43:43;96533.31;;;9.79;100.00
11001;BME280;5553;48.506;8.870;2023-03-21T07:46:14;96499.47;;;9.61;100.00
11001;BME280;5553;48.506;8.870;2023-03-21T07:48:42;96499.19;;;9.92;100.00
11001;BME280;5553;48.506;8.870;2023-03-21T07:51:11;96503.13;;;10.39;100.00
11001;BME280;5553;48.506;8.870;2023-03-21T07:53:39;96497.06;;;9.81;100.00
11001;BME280;5553;48.506;8.870;2023-03-21T07:56:13;96506.81;;;9.66;100.00
11001;BME280;5553;48.506;8.870;2023-03-21T07:58:41;96512.19;;;10.58;100.00
11001;BME280;5553;48.506;8.870;2023-03-21T08:01:09;96495.53;;;10.58;100.00
11001;BME280;5553;48.506;8.870;2023-03-21T08:03:40;96488.44;;;11.28;100.00
11001;BME280;5553;48.506;8.870;2023-03-21T08:06:09;96471.47;;;12.18;100.00
11001;BME280;5553;48.506;8.870;2023-03-21T08:08:37;96459.31;;;11.56;97.38
11001;BME280;5553;48.506;8.870;2023-03-21T08:11:06;96450.97;;;11.11;95.93
11001;BME280;5553;48.506;8.870;2023-03-21T08:13:35;96478.19;;;12.47;96.94
11001;BME280;5553;48.506;8.870;2023-03-21T08:16:04;96468.84;;;12.51;95.46
11001;BME280;5553;48.506;8.870;2023-03-21T08:18:32;96469.34;;;13.13;94.37
11001;BME280;5553;48.506;8.870;2023-03-21T08:21:03;96438.50;;;12.14;91.27
11001;BME280;5553;48.506;8.870;2023-03-21T08:23:32;96451.31;;;13.42;90.16
11001;BME280;5553;48.506;8.870;2023-03-21T08:26:00;96451.25;;;13.62;89.12
11001;BME280;5553;48.506;8.870;2023-03-21T08:28:29;96458.31;;;15.06;87.22
11001;BME280;5553;48.506;8.870;2023-03-21T08:30:57;96422.22;;;14.30;82.70
11001;BME280;5553;48.506;8.870;2023-03-21T08:33:25;96418.41;;;14.26;82.11
11001;BME280;5553;48.506;8.870;2023-03-21T08:35:57;96394.47;;;14.33;78.35
11001;BME280;5553;48.506;8.870;2023-03-21T08:38:28;96412.09;;;14.71;79.63
11001;BME280;5553;48.506;8.870;2023-03-21T08:40:58;96391.16;;;13.81;78.92
11001;BME280;5553;48.506;8.870;2023-03-21T08:43:26;96394.31;;;14.89;76.95
11001;BME280;5553;48.506;8.870;2023-03-21T08:45:54;96348.16;;;14.54;72.98
11001;BME280;5553;48.506;8.870;2023-03-21T08:48:23;96377.81;;;15.96;73.25
11001;BME280;5553;48.506;8.870;2023-03-21T08:50:51;96376.84;;;14.82;73.29
11001;BME280;5553;48.506;8.870;2023-03-21T08:53:19;96353.41;;;14.10;72.08
11001;BME280;5553;48.506;8.870;2023-03-21T08:55:50;96360.69;;;15.02;70.75
11001;BME280;5553;48.506;8.870;2023-03-21T08:58:18;96350.81;;;15.39;69.35
11001;BME280;5553;48.506;8.870;2023-03-21T09:00:47;96363.94;;;15.94;68.46
11001;BME280;5553;48.506;8.870;2023-03-21T09:03:16;96386.03;;;15.95;70.60
11001;BME280;5553;48.506;8.870;2023-03-21T09:05:44;96375.88;;;16.15;68.75
11001;BME280;5553;48.506;8.870;2023-03-21T09:08:13;96360.06;;;16.32;67.37
11001;BME280;5553;48.506;8.870;2023-03-21T09:10:41;96332.88;;;15.04;66.17
11001;BME280;5553;48.506;8.870;2023-03-21T09:13:12;96376.09;;;16.02;67.88
11001;BME280;5553;48.506;8.870;2023-03-21T09:15:40;96357.41;;;15.48;67.49
11001;BME280;5553;48.506;8.870;2023-03-21T09:18:09;96335.22;;;15.12;65.64
11001;BME280;5553;48.506;8.870;2023-03-21T09:20:43;96351.13;;;16.50;65.17
11001;BME280;5553;48.506;8.870;2023-03-21T09:23:13;96357.75;;;15.70;67.00
11001;BME280;5553;48.506;8.870;2023-03-21T09:25:44;96347.63;;;14.82;67.07
11001;BME280;5553;48.506;8.870;2023-03-21T09:28:15;96349.91;;;15.15;66.29
11001;BME280;5553;48.506;8.870;2023-03-21T09:30:44;96340.09;;;14.97;66.53
11001;BME280;5553;48.506;8.870;2023-03-21T09:33:12;96376.63;;;14.15;70.55
11001;BME280;5553;48.506;8.870;2023-03-21T09:35:49;96378.38;;;14.03;72.01
11001;BME280;5553;48.506;8.870;2023-03-21T09:38:18;96394.56;;;14.19;72.90
11001;BME280;5553;48.506;8.870;2023-03-21T09:40:58;96379.56;;;13.82;72.11
11001;BME280;5553;48.506;8.870;2023-03-21T09:43:38;96391.50;;;14.41;72.61
11001;BME280;5553;48.506;8.870;2023-03-21T09:46:13;96375.16;;;13.94;72.52
11001;BME280;5553;48.506;8.870;2023-03-21T09:48:49;96380.59;;;14.06;73.12
11001;BME280;5553;48.506;8.870;2023-03-21T09:51:25;96380.34;;;14.32;72.54
11001;BME280;5553;48.506;8.870;2023-03-21T09:53:54;96358.28;;;14.13;70.63
11001;BME280;5553;48.506;8.870;2023-03-21T09:56:25;96348.31;;;15.26;68.00
11001;BME280;5553;48.506;8.870;2023-03-21T09:58:59;96332.75;;;14.19;68.25
11001;BME280;5553;48.506;8.870;2023-03-21T10:01:31;96390.38;;;14.30;72.58
11001;BME280;5553;48.506;8.870;2023-03-21T10:04:07;96342.94;;;15.14;66.75
11001;BME280;5553;48.506;8.870;2023-03-21T10:06:40;96352.03;;;14.51;69.49
11001;BME280;5553;48.506;8.870;2023-03-21T10:09:13;96360.28;;;14.43;70.07
11001;BME280;5553;48.506;8.870;2023-03-21T10:11:50;96375.03;;;14.32;73.08
11001;BME280;5553;48.506;8.870;2023-03-21T10:14:27;96356.41;;;13.95;72.36
11001;BME280;5553;48.506;8.870;2023-03-21T10:16:59;96359.81;;;15.08;69.87
11001;BME280;5553;48.506;8.870;2023-03-21T10:19:28;96340.47;;;14.82;68.91
11001;BME280;5553;48.506;8.870;2023-03-21T10:21:56;96344.41;;;14.11;70.70
11001;BME280;5553;48.506;8.870;2023-03-21T10:24:26;96348.16;;;14.54;70.35
11001;BME280;5553;48.506;8.870;2023-03-21T10:26:55;96342.50;;;14.43;70.66
11001;BME280;5553;48.506;8.870;2023-03-21T10:29:29;96348.84;;;14.17;71.33
11001;BME280;5553;48.506;8.870;2023-03-21T10:32:01;96351.94;;;14.39;72.18
11001;BME280;5553;48.506;8.870;2023-03-21T10:34:32;96347.06;;;13.86;72.00
11001;BME280;5553;48.506;8.870;2023-03-21T10:37:04;96363.16;;;13.91;73.37
11001;BME280;5553;48.506;8.870;2023-03-21T10:39:35;96348.28;;;14.15;71.37
11001;BME280;5553;48.506;8.870;2023-03-21T10:42:04;96375.28;;;14.06;75.10
11001;BME280;5553;48.506;8.870;2023-03-21T10:44:35;96336.56;;;13.73;71.10
11001;BME280;5553;48.506;8.870;2023-03-21T10:47:05;96355.03;;;14.11;72.45
11001;BME280;5553;48.506;8.870;2023-03-21T10:49:36;96302.50;;;13.45;68.65
11001;BME280;5553;48.506;8.870;2023-03-21T10:52:08;96331.22;;;13.80;69.61
11001;BME280;5553;48.506;8.870;2023-03-21T10:54:38;96341.78;;;13.86;71.20
11001;BME280;5553;48.506;8.870;2023-03-21T10:57:08;96331.16;;;13.61;70.03
11001;BME280;5553;48.506;8.870;2023-03-21T10:59:44;96351.66;;;13.72;72.24
11001;BME280;5553;48.506;8.870;2023-03-21T11:02:17;96314.91;;;13.51;69.15
11001;BME280;5553;48.506;8.870;2023-03-21T11:04:46;96325.13;;;13.47;70.69
11001;BME280;5553;48.506;8.870;2023-03-21T11:07:17;96303.72;;;13.49;68.17
11001;BME280;5553;48.506;8.870;2023-03-21T11:09:49;96285.28;;;13.29;66.85
11001;BME280;5553;48.506;8.870;2023-03-21T11:12:29;96272.84;;;13.30;65.30
11001;BME280;5553;48.506;8.870;2023-03-21T11:15:24;96286.28;;;13.35;65.85
11001;BME280;5553;48.506;8.870;2023-03-21T11:17:53;96302.22;;;13.21;67.47
11001;BME280;5553;48.506;8.870;2023-03-21T11:20:22;96328.59;;;13.48;69.13
11001;BME280;5553;48.506;8.870;2023-03-21T11:22:53;96325.91;;;13.55;68.97
11001;BME280;5553;48.506;8.870;2023-03-21T11:25:26;96310.03;;;13.48;68.07
11001;BME280;5553;48.506;8.870;2023-03-21T11:28:04;96296.53;;;13.56;67.28
11001;BME280;5553;48.506;8.870;2023-03-21T11:30:36;96306.34;;;13.49;68.39
11001;BME280;5553;48.506;8.870;2023-03-21T11:33:05;96296.38;;;13.51;67.46
11001;BME280;5553;48.506;8.870;2023-03-21T11:35:35;96296.06;;;13.34;68.41
11001;BME280;5553;48.506;8.870;2023-03-21T11:38:06;96321.19;;;13.57;70.06
11001;BME280;5553;48.506;8.870;2023-03-21T11:40:53;96299.78;;;13.58;68.53
11001;BME280;5553;48.506;8.870;2023-03-21T11:43:28;96284.03;;;13.63;66.86
11001;BME280;5553;48.506;8.870;2023-03-21T11:46:05;96283.34;;;13.74;67.38
11001;BME280;5553;48.506;8.870;2023-03-21T11:48:38;96269.56;;;13.84;66.19
11001;BME280;5553;48.506;8.870;2023-03-21T11:51:18;96230.97;;;13.70;64.23
11001;BME280;5553;48.506;8.870;2023-03-21T11:53:56;96243.25;;;13.64;65.34
11001;BME280;5553;48.506;8.870;2023-03-21T11:56:31;96265.03;;;13.66;66.80
11001;BME280;5553;48.506;8.870;2023-03-21T11:59:18;96265.59;;;13.75;66.89
11001;BME280;5553;48.506;8.870;2023-03-21T12:02:10;96263.47;;;13.84;67.39
11001;BME280;5553;48.506;8.870;2023-03-21T12:04:46;96248.63;;;14.01;66.18
11001;BME280;5553;48.506;8.870;2023-03-21T12:07:29;96246.63;;;13.96;65.75
11001;BME280;5553;48.506;8.870;2023-03-21T12:10:09;96217.16;;;14.05;63.72
11001;BME280;5553;48.506;8.870;2023-03-21T12:12:47;96228.47;;;14.55;63.46
11001;BME280;5553;48.506;8.870;2023-03-21T12:15:24;96222.00;;;15.11;62.40
11001;BME280;5553;48.506;8.870;2023-03-21T12:18:04;96212.59;;;15.39;61.62
11001;BME280;5553;48.506;8.870;2023-03-21T12:20:39;96191.44;;;14.90;61.53
11001;BME280;5553;48.506;8.870;2023-03-21T12:23:31;96171.78;;;15.33;59.64
11001;BME280;5553;48.506;8.870;2023-03-21T12:26:12;96178.16;;;16.03;58.86
11001;BME280;5553;48.506;8.870;2023-03-21T12:28:59;96180.72;;;16.50;57.69
11001;BME280;5553;48.506;8.870;2023-03-21T12:31:38;96150.31;;;15.94;56.96
11001;BME280;5553;48.506;8.870;2023-03-21T12:34:20;96131.50;;;16.24;54.32
11001;BME280;5553;48.506;8.870;2023-03-21T12:37:02;96129.72;;;16.41;54.32
11001;BME280;5553;48.506;8.870;2023-03-21T12:39:34;96078.06;;;15.61;51.23
11001;BME280;5553;48.506;8.870;2023-03-21T12:42:13;96095.63;;;15.86;52.63
11001;BME280;5553;48.506;8.870;2023-03-21T12:44:49;96098.97;;;15.93;52.70
11001;BME280;5553;48.506;8.870;2023-03-21T12:47:22;96098.19;;;16.21;52.21
11001;BME280;5553;48.506;8.870;2023-03-21T13:31:19;96055.41;;;15.47;50.83
